createdAt,value
2024-04-15T00:02:14.904Z,101606.53
2024-04-15T00:04:41.616Z,101600.84
2024-04-15T00:07:11.203Z,101602.28
2024-04-15T00:12:18.565Z,101599.66
2024-04-15T00:14:46.522Z,101597.41
2024-04-15T00:17:13.261Z,101593.56
2024-04-15T00:19:39.920Z,101584.53
2024-04-15T00:22:14.135Z,101580.69
2024-04-15T00:24:40.837Z,101569.91
2024-04-15T00:27:07.502Z,101572.16
2024-04-15T00:29:34.101Z,101565.66
2024-04-15T00:32:00.909Z,101558.78
2024-04-15T00:34:27.547Z,101557.44
2024-04-15T00:36:55.430Z,101551.75
2024-04-15T00:39:22.106Z,101540.00
2024-04-15T00:41:48.727Z,101533.69
2024-04-15T00:44:15.350Z,101535.41
2024-04-15T00:46:41.984Z,101531.88
2024-04-15T00:49:10.474Z,101515.53
2024-04-15T00:51:39.056Z,101518.88
2024-04-15T00:54:06.738Z,101504.66
2024-04-15T00:56:33.622Z,101507.50
2024-04-15T00:59:01.188Z,101498.59
2024-04-15T01:01:28.070Z,101502.16
2024-04-15T01:03:59.346Z,101500.53
2024-04-15T01:06:26.075Z,101496.66
2024-04-15T01:08:52.654Z,101488.75
2024-04-15T01:11:19.500Z,101489.56
2024-04-15T01:13:46.961Z,101480.53
2024-04-15T01:16:13.940Z,101473.16
2024-04-15T01:18:40.791Z,101467.47
2024-04-15T01:21:09.279Z,101468.88
2024-04-15T01:23:40.274Z,101461.78
2024-04-15T01:26:06.954Z,101459.13
2024-04-15T01:28:33.632Z,101456.69
2024-04-15T01:31:00.406Z,101455.88
2024-04-15T01:33:27.153Z,101453.16
2024-04-15T01:35:53.896Z,101445.53
2024-04-15T01:38:20.891Z,101443.31
2024-04-15T01:40:47.638Z,101437.31
2024-04-15T01:43:14.332Z,101438.75
2024-04-15T01:45:41.108Z,101444.81
2024-04-15T01:48:08.047Z,101436.09
2024-04-15T01:50:34.723Z,101437.50
2024-04-15T01:53:01.322Z,101432.03
2024-04-15T01:55:27.980Z,101435.41
2024-04-15T01:57:54.599Z,101422.03
2024-04-15T02:00:21.346Z,101419.47
2024-04-15T02:02:48.029Z,101413.09
2024-04-15T02:05:14.761Z,101410.06
2024-04-15T02:07:41.396Z,101407.31
2024-04-15T02:10:08.427Z,101404.38
2024-04-15T02:12:35.226Z,101392.00
2024-04-15T02:15:02.037Z,101398.59
2024-04-15T02:17:28.790Z,101389.28
2024-04-15T02:19:55.477Z,101386.84
2024-04-15T02:22:22.191Z,101379.25
2024-04-15T02:24:48.981Z,101375.22
2024-04-15T02:27:16.796Z,101365.47
2024-04-15T02:29:46.529Z,101364.16
2024-04-15T02:32:13.247Z,101372.97
2024-04-15T02:34:39.983Z,101357.97
2024-04-15T02:37:06.675Z,101363.94
2024-04-15T02:39:33.447Z,101366.38
2024-04-15T02:42:00.265Z,101365.88
2024-04-15T02:44:27.634Z,101359.59
2024-04-15T02:46:54.697Z,101355.53
2024-04-15T02:49:31.051Z,101355.53
2024-04-15T02:51:58.550Z,101356.34
2024-04-15T02:54:25.785Z,101356.44
2024-04-15T02:57:03.790Z,101348.81
2024-04-15T02:59:36.566Z,101346.69
2024-04-15T03:02:03.328Z,101341.72
2024-04-15T03:04:31.597Z,101341.22
2024-04-15T03:07:23.638Z,101336.88
2024-04-15T03:09:56.513Z,101333.03
2024-04-15T03:12:23.353Z,101330.28
2024-04-15T03:14:50.408Z,101325.13
2024-04-15T03:17:19.741Z,101317.84
2024-04-15T03:19:47.318Z,101311.88
2024-04-15T03:22:13.992Z,101301.22
2024-04-15T03:24:41.674Z,101299.59
2024-04-15T03:27:08.320Z,101300.50
2024-04-15T03:29:35.801Z,101297.25
2024-04-15T03:32:02.420Z,101288.84
2024-04-15T03:34:29.116Z,101285.59
2024-04-15T03:36:56.260Z,101281.25
2024-04-15T03:39:22.974Z,101276.59
2024-04-15T03:41:49.589Z,101277.50
2024-04-15T03:44:20.272Z,101273.44
2024-04-15T03:46:47.143Z,101265.53
2024-04-15T03:49:16.213Z,101264.13
2024-04-15T03:51:42.920Z,101258.97
2024-04-15T03:54:09.599Z,101250.97
2024-04-15T03:56:36.311Z,101245.50
2024-04-15T03:59:04.047Z,101245.50
2024-04-15T04:01:34.363Z,101237.63
2024-04-15T04:07:05.890Z,101229.72
2024-04-15T04:09:34.078Z,101228.09
2024-04-15T04:12:00.732Z,101227.59
2024-04-15T04:14:29.386Z,101223.53
2024-04-15T04:16:59.114Z,101211.31
2024-04-15T04:19:27.087Z,101198.75
2024-04-15T04:22:04.296Z,101207.75
2024-04-15T04:24:32.156Z,101194.91
2024-04-15T04:26:58.776Z,101197.53
2024-04-15T04:29:25.737Z,101196.91
2024-04-15T04:31:52.565Z,101185.69
2024-04-15T04:34:19.419Z,101173.63
2024-04-15T04:36:46.145Z,101182.13
2024-04-15T04:39:13.678Z,101172.31
2024-04-15T04:41:44.299Z,101180.00
2024-04-15T04:44:11.114Z,101170.69
2024-04-15T04:46:41.291Z,101175.34
2024-04-15T04:49:09.474Z,101175.66
2024-04-15T04:51:38.930Z,101169.97
2024-04-15T04:54:05.884Z,101178.19
2024-04-15T04:56:32.568Z,101168.69
2024-04-15T04:58:59.202Z,101170.91
2024-04-15T05:01:25.966Z,101173.94
2024-04-15T05:03:52.710Z,101167.69
2024-04-15T05:06:19.547Z,101160.28
2024-04-15T05:08:47.100Z,101158.38
2024-04-15T05:11:20.355Z,101155.13
2024-04-15T05:13:47.082Z,101148.03
2024-04-15T05:16:17.535Z,101150.16
2024-04-15T05:19:16.338Z,101145.50
2024-04-15T05:28:51.445Z,101126.91
2024-04-15T05:31:45.615Z,101129.31
2024-04-15T05:35:23.933Z,101127.41
2024-04-15T05:37:50.828Z,101126.47
2024-04-15T05:40:17.563Z,101116.34
2024-04-15T05:42:46.278Z,101120.38
2024-04-15T05:45:25.205Z,101115.22
2024-04-15T05:48:06.253Z,101117.97
2024-04-15T05:50:43.178Z,101113.81
2024-04-15T05:53:13.773Z,101107.84
2024-04-15T05:55:42.201Z,101102.16
2024-04-15T06:00:58.930Z,101104.72
2024-04-15T06:03:25.723Z,101104.41
2024-04-15T06:05:54.165Z,101108.03
2024-04-15T06:08:47.958Z,101102.56
2024-04-15T06:15:00.661Z,101088.47
2024-04-15T06:18:32.716Z,101081.25
2024-04-15T06:24:06.473Z,101073.66
2024-04-15T06:26:33.254Z,101065.03
2024-04-15T06:33:37.125Z,101057.78
2024-04-15T06:37:28.680Z,101050.59
2024-04-15T06:39:56.773Z,101041.81
2024-04-15T06:42:43.877Z,101038.34
2024-04-15T06:45:10.940Z,101029.53
2024-04-15T06:47:40.735Z,101031.19
2024-04-15T06:50:54.681Z,101009.00
2024-04-15T06:53:27.805Z,101013.06
2024-04-15T06:59:31.920Z,101002.25
2024-04-15T07:01:58.940Z,100993.22
2024-04-15T07:04:32.328Z,100988.84
2024-04-15T07:07:25.269Z,100985.47
2024-04-15T07:10:18.339Z,100976.44
2024-04-15T07:13:02.761Z,100971.44
2024-04-15T07:15:29.548Z,100976.28
2024-04-15T07:17:57.229Z,100971.78
2024-04-15T07:20:23.997Z,100954.34
2024-04-15T07:22:56.677Z,100966.63
2024-04-15T07:25:34.728Z,100962.72
2024-04-15T07:28:10.922Z,100950.97
2024-04-15T07:30:37.835Z,100949.50
2024-04-15T07:33:05.445Z,100936.94
2024-04-15T07:35:35.820Z,100923.72
2024-04-15T07:38:05.121Z,100931.63
2024-04-15T07:40:31.843Z,100927.56
2024-04-15T07:42:58.738Z,100924.97
2024-04-15T07:45:25.376Z,100912.69
2024-04-15T07:47:51.987Z,100899.78
2024-04-15T07:50:18.701Z,100904.16
2024-04-15T07:52:45.408Z,100897.34
2024-04-15T07:55:12.065Z,100886.38
2024-04-15T07:57:38.810Z,100888.16
2024-04-15T08:00:07.946Z,100879.78
2024-04-15T08:02:39.074Z,100874.59
2024-04-15T08:05:06.164Z,100859.41
2024-04-15T08:07:32.768Z,100852.63
2024-04-15T08:09:59.492Z,100857.31
2024-04-15T08:12:26.168Z,100840.69
2024-04-15T08:14:52.884Z,100836.66
2024-04-15T08:17:19.653Z,100831.31
2024-04-15T08:19:46.548Z,100829.06
2024-04-15T08:22:13.141Z,100816.00
2024-04-15T08:24:42.652Z,100819.25
2024-04-15T08:27:09.617Z,100812.63
2024-04-15T08:29:36.208Z,100793.25
2024-04-15T08:32:05.801Z,100784.56
2024-04-15T08:34:32.543Z,100780.97
2024-04-15T08:36:59.159Z,100777.38
2024-04-15T08:39:26.798Z,100786.06
2024-04-15T08:42:04.748Z,100772.47
2024-04-15T08:44:34.705Z,100766.63
2024-04-15T08:47:11.227Z,100761.75
2024-04-15T08:49:40.536Z,100740.75
2024-04-15T08:52:08.627Z,100731.09
2024-04-15T08:54:35.405Z,100720.41
2024-04-15T08:57:03.143Z,100727.63
2024-04-15T08:59:32.044Z,100715.78
2024-04-15T09:01:58.714Z,100698.84
2024-04-15T09:04:25.907Z,100712.75
2024-04-15T09:06:52.811Z,100701.72
2024-04-15T09:09:21.292Z,100704.44
2024-04-15T09:11:56.469Z,100693.06
2024-04-15T09:14:23.250Z,100693.78
2024-04-15T09:16:50.043Z,100698.53
2024-04-15T09:19:16.843Z,100697.94
2024-04-15T09:21:43.611Z,100667.13
2024-04-15T09:24:11.460Z,100670.69
2024-04-15T09:26:41.379Z,100650.03
2024-04-15T09:29:10.638Z,100654.75
2024-04-15T09:35:02.475Z,100645.53
2024-04-15T09:37:29.747Z,100616.44
2024-04-15T09:40:03.714Z,100617.38
2024-04-15T09:43:29.847Z,100593.13
2024-04-15T09:46:13.975Z,100573.00
2024-04-15T09:48:41.027Z,100579.59
2024-04-15T09:51:33.967Z,100561.84
2024-04-15T09:54:11.926Z,100559.09
2024-04-15T09:57:20.862Z,100544.38
2024-04-15T10:16:36.892Z,100509.25
2024-04-15T10:29:49.960Z,100458.88
2024-04-15T10:32:44.622Z,100447.44
2024-04-15T10:35:45.159Z,100433.88
2024-04-15T10:38:12.670Z,100415.66
2024-04-15T10:40:48.319Z,100425.16
2024-04-15T10:43:40.665Z,100426.84
2024-04-15T10:46:12.605Z,100431.09
2024-04-15T10:49:08.636Z,100419.63
2024-04-15T10:51:39.070Z,100421.72
2024-04-15T10:54:11.672Z,100425.25
2024-04-15T10:56:41.944Z,100411.28
2024-04-15T10:59:41.735Z,100402.06
2024-04-15T11:03:04.124Z,100407.66
2024-04-15T11:08:16.922Z,100390.50
2024-04-15T11:10:44.675Z,100385.41
2024-04-15T11:13:19.647Z,100375.25
2024-04-15T11:15:46.576Z,100368.22
2024-04-15T11:18:15.321Z,100360.19
2024-04-15T11:23:46.751Z,100328.38
2024-04-15T11:26:15.450Z,100315.00
2024-04-15T11:28:47.674Z,100280.72
2024-04-15T11:31:15.139Z,100251.47
2024-04-15T11:33:42.100Z,100233.69
2024-04-15T11:36:16.294Z,100262.41
2024-04-15T11:39:01.831Z,100248.66
2024-04-15T11:42:19.944Z,100229.22
2024-04-15T11:45:15.572Z,100233.06
2024-04-15T11:47:42.752Z,100235.31
2024-04-15T11:50:12.708Z,100212.50
2024-04-15T11:52:51.624Z,100215.16
2024-04-15T11:56:09.021Z,100188.59
2024-04-15T11:58:38.926Z,100176.97
2024-04-15T12:01:21.110Z,100171.19
2024-04-15T12:04:30.177Z,100161.63
2024-04-15T12:06:57.205Z,100154.22
2024-04-15T12:09:26.739Z,100145.19
2024-04-15T12:11:53.351Z,100143.13
2024-04-15T12:14:21.132Z,100126.84
2024-04-15T12:16:47.851Z,100115.31
2024-04-15T12:19:14.625Z,100097.63
2024-04-15T12:21:41.267Z,100089.53
2024-04-15T12:24:08.067Z,100074.25
2024-04-15T12:26:38.926Z,100069.22
2024-04-15T12:29:13.183Z,100064.19
2024-04-15T12:31:39.837Z,100045.13
2024-04-15T12:34:06.564Z,100056.53
2024-04-15T12:36:33.248Z,100053.78
2024-04-15T12:38:59.880Z,100061.63
2024-04-15T12:41:26.485Z,100049.63
2024-04-15T12:43:53.293Z,100028.06
2024-04-15T12:46:23.101Z,100032.41
2024-04-15T12:48:49.937Z,100039.94
2024-04-15T12:51:41.358Z,100065.56
2024-04-15T12:54:16.835Z,100172.50
2024-04-15T12:56:44.111Z,100175.75
2024-04-15T12:59:10.970Z,100171.09
2024-04-15T13:01:46.682Z,100160.44
2024-04-15T13:04:20.050Z,100153.53
2024-04-15T13:06:46.719Z,100158.13
2024-04-15T13:09:13.433Z,100151.44
2024-04-15T13:11:40.128Z,100151.91
2024-04-15T13:14:06.811Z,100150.94
2024-04-15T13:16:33.454Z,100142.13
2024-04-15T13:19:01.413Z,100151.91
2024-04-15T13:21:28.430Z,100149.50
2024-04-15T13:23:56.372Z,100133.63
2024-04-15T13:26:23.721Z,100131.88
2024-04-15T13:28:51.600Z,100137.63
2024-04-15T13:31:18.608Z,100120.03
2024-04-15T13:33:47.570Z,100113.91
2024-04-15T13:36:17.973Z,100097.28
2024-04-15T13:38:48.200Z,100099.38
2024-04-15T13:41:29.885Z,100085.75
2024-04-15T13:44:25.102Z,100092.00
2024-04-15T13:46:55.624Z,100100.97
2024-04-15T14:11:40.026Z,100101.63
2024-04-15T14:14:07.180Z,100116.38
2024-04-15T14:16:36.903Z,100107.09
2024-04-15T14:23:13.746Z,100102.53
2024-04-15T14:26:03.067Z,100112.03
2024-04-15T14:28:47.480Z,100123.13
2024-04-15T14:31:39.667Z,100127.13
2024-04-15T14:34:14.535Z,100119.25
2024-04-15T14:36:44.568Z,100115.06
2024-04-15T14:40:22.092Z,100114.72
2024-04-15T14:43:19.695Z,100116.41
2024-04-15T14:57:58.490Z,100102.66
2024-04-15T15:01:16.651Z,100105.78
2024-04-15T15:03:43.540Z,100110.97
2024-04-15T15:06:19.360Z,100118.19
2024-04-15T15:09:45.718Z,100125.91
2024-04-15T15:12:12.326Z,100117.56
2024-04-15T15:14:39.926Z,100108.59
2024-04-15T15:20:12.946Z,100131.19
2024-04-15T15:25:43.644Z,100170.75
2024-04-15T15:28:18.320Z,100153.59
2024-04-15T15:30:45.805Z,100156.47
2024-04-15T15:33:14.309Z,100163.50
2024-04-15T15:36:12.608Z,100167.34
2024-04-15T15:47:56.368Z,100153.13
2024-04-15T15:53:05.048Z,100149.56
2024-04-15T15:55:38.524Z,100149.56
2024-04-15T15:58:07.619Z,100159.34
2024-04-15T16:00:56.772Z,100165.13
2024-04-15T16:03:23.998Z,100163.03
2024-04-15T16:05:50.836Z,100192.09
2024-04-15T16:08:35.924Z,100188.03
2024-04-15T16:11:16.376Z,100185.94
2024-04-15T16:13:45.801Z,100184.50
2024-04-15T16:22:31.264Z,100192.38
2024-04-15T16:25:48.907Z,100182.94
2024-04-15T16:28:15.997Z,100190.63
2024-04-15T16:37:36.222Z,100186.28
2024-04-15T16:40:28.455Z,100200.69
2024-04-15T16:42:55.767Z,100195.88
2024-04-15T16:46:10.057Z,100190.56
2024-04-15T16:48:37.373Z,100189.13
2024-04-15T16:51:04.488Z,100191.88
2024-04-15T16:53:34.309Z,100200.06
2024-04-15T17:08:58.366Z,100223.31
2024-04-15T17:11:31.297Z,100220.22
2024-04-15T17:14:02.623Z,100226.94
2024-04-15T17:16:38.108Z,100225.16
2024-04-15T17:20:10.388Z,100228.50
2024-04-15T17:23:46.183Z,100228.47
2024-04-15T17:32:30.606Z,100240.09
2024-04-15T17:35:02.060Z,100228.03
2024-04-15T17:41:33.637Z,100227.41
2024-04-15T17:44:22.655Z,100223.59
2024-04-15T17:50:16.630Z,100225.38
2024-04-15T17:52:52.573Z,100230.19
2024-04-15T17:55:20.190Z,100228.44
2024-04-15T17:58:13.440Z,100231.31
2024-04-15T18:00:46.682Z,100217.41
2024-04-15T18:14:31.594Z,100267.22
2024-04-15T18:16:59.178Z,100261.88
2024-04-15T18:19:26.065Z,100262.63
2024-04-15T18:21:54.740Z,100271.25
2024-04-15T18:24:21.833Z,100263.50
2024-04-15T18:26:48.887Z,100267.50
2024-04-15T18:29:15.554Z,100259.44
2024-04-15T18:31:47.599Z,100261.19
2024-04-15T18:34:18.329Z,100263.72
2024-04-15T18:36:45.845Z,100265.94
2024-04-15T18:39:20.240Z,100256.97
2024-04-15T18:41:46.929Z,100259.50
2024-04-15T18:48:14.593Z,100269.38
2024-04-15T18:50:43.579Z,100264.53
2024-04-15T18:53:10.274Z,100270.19
2024-04-15T18:55:38.605Z,100291.97
2024-04-15T18:58:07.362Z,100290.25
2024-04-15T19:00:35.096Z,100290.53
2024-04-15T19:03:01.988Z,100292.84
2024-04-15T19:05:30.108Z,100284.69
2024-04-15T19:08:12.458Z,100298.44
2024-04-15T19:10:40.381Z,100311.53
2024-04-15T19:13:10.946Z,100292.00
2024-04-15T19:15:42.146Z,100287.66
2024-04-15T19:18:09.335Z,100283.34
2024-04-15T19:20:37.509Z,100292.63
2024-04-15T19:23:41.251Z,100295.63
2024-04-15T19:26:08.515Z,100319.00
2024-04-15T19:28:35.267Z,100331.69
2024-04-15T19:31:04.304Z,100334.41
2024-04-15T19:33:31.603Z,100350.25
2024-04-15T19:36:14.063Z,100355.19
2024-04-15T19:38:48.885Z,100362.34
2024-04-15T19:41:15.816Z,100366.88
2024-04-15T19:44:36.146Z,100360.53
2024-04-15T19:51:27.813Z,100353.50
2024-04-15T19:54:05.454Z,100349.47
2024-04-15T19:56:33.002Z,100332.06
2024-04-15T19:59:01.103Z,100326.31
2024-04-15T20:01:28.528Z,100331.47
2024-04-15T20:03:55.421Z,100329.84
2024-04-15T20:06:22.236Z,100337.41
2024-04-15T20:08:49.046Z,100343.34
2024-04-15T20:11:15.780Z,100350.91
2024-04-15T20:13:42.535Z,100351.69
2024-04-15T20:16:10.516Z,100340.81
2024-04-15T20:18:44.119Z,100340.63
2024-04-15T20:21:22.916Z,100335.28
2024-04-15T20:23:49.741Z,100326.03
2024-04-15T20:26:16.971Z,100328.53
2024-04-15T20:28:43.692Z,100318.56
2024-04-15T20:31:10.436Z,100325.13
2024-04-15T20:33:37.265Z,100311.84
2024-04-15T20:36:06.046Z,100311.63
2024-04-15T20:38:35.559Z,100300.16
2024-04-15T20:41:03.470Z,100289.09
2024-04-15T20:43:30.244Z,100278.81
2024-04-15T20:45:57.526Z,100282.84
2024-04-15T20:48:24.359Z,100278.72
2024-04-15T20:50:51.206Z,100279.81
2024-04-15T20:53:17.921Z,100293.41
2024-04-15T20:55:44.695Z,100297.75
2024-04-15T20:58:11.450Z,100306.09
2024-04-15T21:00:38.255Z,100305.59
2024-04-15T21:03:05.269Z,100306.09
2024-04-15T21:05:31.997Z,100308.81
2024-04-15T21:08:36.283Z,100288.69
2024-04-15T21:11:21.528Z,100284.94
2024-04-15T21:13:48.312Z,100276.19
2024-04-15T21:16:18.714Z,100282.63
2024-04-15T21:18:53.718Z,100294.41
2024-04-15T21:21:45.426Z,100299.53
2024-04-15T21:27:14.122Z,100349.00
2024-04-15T21:29:54.980Z,100346.47
2024-04-15T21:32:47.273Z,100330.97
2024-04-15T21:35:22.590Z,100351.91
2024-04-15T21:38:14.800Z,100352.09
2024-04-15T21:40:59.996Z,100339.00
2024-04-15T21:47:31.930Z,100333.25
2024-04-15T21:49:58.777Z,100337.88
2024-04-15T21:52:26.839Z,100333.56
2024-04-15T21:54:53.559Z,100323.31
2024-04-15T21:57:25.554Z,100317.69
2024-04-15T21:59:52.395Z,100307.63
2024-04-15T22:02:19.343Z,100302.69
2024-04-15T22:04:58.549Z,100296.16
2024-04-15T22:07:28.327Z,100289.00
2024-04-15T22:09:55.446Z,100283.91
2024-04-15T22:12:22.411Z,100276.53
2024-04-15T22:19:27.119Z,100252.50
2024-04-15T22:21:53.905Z,100253.91
2024-04-15T22:24:20.955Z,100248.47
2024-04-15T22:26:47.808Z,100247.38
2024-04-15T22:29:14.631Z,100248.47
2024-04-15T22:31:41.618Z,100250.69
2024-04-15T22:34:08.831Z,100247.47
2024-04-15T22:36:35.553Z,100243.63
2024-04-15T22:39:02.275Z,100243.63
2024-04-15T22:41:28.950Z,100233.59
2024-04-15T22:43:55.656Z,100234.38
2024-04-15T22:46:22.561Z,100232.47
2024-04-15T22:48:50.352Z,100234.91
2024-04-15T22:51:17.226Z,100229.47
2024-04-15T22:53:43.985Z,100230.56
2024-04-15T22:56:16.579Z,100229.16
2024-04-15T22:58:55.374Z,100225.13
2024-04-15T23:01:25.249Z,100219.69
2024-04-15T23:03:51.996Z,100226.75
2024-04-15T23:06:20.103Z,100224.03
2024-04-15T23:08:46.826Z,100222.13
2024-04-15T23:11:15.881Z,100220.50
2024-04-15T23:13:42.582Z,100226.13
2024-04-15T23:16:09.393Z,100235.41
2024-04-15T23:18:36.136Z,100221.00
2024-04-15T23:21:04.925Z,100214.47
2024-04-15T23:23:31.593Z,100226.13
2024-04-15T23:25:58.756Z,100216.88
2024-04-15T23:28:25.474Z,100212.25
2024-04-15T23:31:04.686Z,100216.88
2024-04-15T23:33:32.389Z,100206.81
2024-04-15T23:35:59.353Z,100214.69
2024-04-15T23:38:26.691Z,100207.84
2024-04-15T23:40:53.338Z,100204.97
2024-04-15T23:43:20.143Z,100203.28
2024-04-15T23:46:05.973Z,100204.78
2024-04-15T23:48:51.510Z,100203.56
2024-04-15T23:51:47.260Z,100199.34
2024-04-15T23:54:32.945Z,100196.81
2024-04-15T23:57:18.215Z,100190.94
